sensor_id;sensor_type;location;lat;lon;timestamp;temperature;humidity
17954;DHT22;9102;53.548;9.926;2023-04-01T00:01:28;10.10;99.90
17954;DHT22;9102;53.548;9.926;2023-04-01T00:03:57;10.10;99.90
17954;DHT22;9102;53.548;9.926;2023-04-01T00:06:24;10.10;99.90
17954;DHT22;9102;53.548;9.926;2023-04-01T00:08:51;10.10;99.90
17954;DHT22;9102;53.548;9.926;2023-04-01T00:11:18;10.10;99.90
17954;DHT22;9102;53.548;9.926;2023-04-01T00:13:45;10.00;99.90
17954;DHT22;9102;53.548;9.926;2023-04-01T00:16:12;10.10;99.90
17954;DHT22;9102;53.548;9.926;2023-04-01T00:18:40;10.00;99.90
17954;DHT22;9102;53.548;9.926;2023-04-01T00:21:08;10.00;99.90
17954;DHT22;9102;53.548;9.926;2023-04-01T00:23:35;10.00;99.90
17954;DHT22;9102;53.548;9.926;2023-04-01T00:26:03;10.00;99.90
17954;DHT22;9102;53.548;9.926;2023-04-01T00:28:30;10.00;99.90
17954;DHT22;9102;53.548;9.926;2023-04-01T00:30:57;10.00;99.90
17954;DHT22;9102;53.548;9.926;2023-04-01T00:33:24;9.90;99.90
17954;DHT22;9102;53.548;9.926;2023-04-01T00:35:53;10.00;99.90
17954;DHT22;9102;53.548;9.926;2023-04-01T00:38:21;9.90;99.90
17954;DHT22;9102;53.548;9.926;2023-04-01T00:40:48;9.90;99.90
17954;DHT22;9102;53.548;9.926;2023-04-01T00:43:17;10.00;99.90
17954;DHT22;9102;53.548;9.926;2023-04-01T00:45:46;10.00;99.90
17954;DHT22;9102;53.548;9.926;2023-04-01T00:48:16;10.00;99.90
17954;DHT22;9102;53.548;9.926;2023-04-01T00:50:48;10.00;99.90
17954;DHT22;9102;53.548;9.926;2023-04-01T00:53:16;9.90;99.90
17954;DHT22;9102;53.548;9.926;2023-04-01T00:55:53;10.00;99.90
17954;DHT22;9102;53.548;9.926;2023-04-01T00:58:21;10.00;99.90
17954;DHT22;9102;53.548;9.926;2023-04-01T01:00:51;9.90;99.90
17954;DHT22;9102;53.548;9.926;2023-04-01T01:03:18;9.90;99.90
17954;DHT22;9102;53.548;9.926;2023-04-01T01:09:13;9.90;99.90
17954;DHT22;9102;53.548;9.926;2023-04-01T01:11:48;9.90;99.90
17954;DHT22;9102;53.548;9.926;2023-04-01T01:14:27;9.90;99.90
17954;DHT22;9102;53.548;9.926;2023-04-01T01:16:59;9.80;99.90
17954;DHT22;9102;53.548;9.926;2023-04-01T01:22:39;9.80;99.90
17954;DHT22;9102;53.548;9.926;2023-04-01T01:25:17;9.80;99.90
17954;DHT22;9102;53.548;9.926;2023-04-01T01:27:54;9.80;99.90
17954;DHT22;9102;53.548;9.926;2023-04-01T01:30:44;9.80;99.90
17954;DHT22;9102;53.548;9.926;2023-04-01T01:33:33;9.80;99.90
17954;DHT22;9102;53.548;9.926;2023-04-01T01:36:06;9.80;99.90
17954;DHT22;9102;53.548;9.926;2023-04-01T01:38:34;9.80;99.90
17954;DHT22;9102;53.548;9.926;2023-04-01T01:41:03;9.80;99.90
17954;DHT22;9102;53.548;9.926;2023-04-01T01:43:35;9.80;99.90
17954;DHT22;9102;53.548;9.926;2023-04-01T01:46:07;9.90;99.90
17954;DHT22;9102;53.548;9.926;2023-04-01T01:48:36;9.80;99.90
17954;DHT22;9102;53.548;9.926;2023-04-01T01:51:05;9.80;99.90
17954;DHT22;9102;53.548;9.926;2023-04-01T01:53:32;9.80;99.90
17954;DHT22;9102;53.548;9.926;2023-04-01T01:55:59;9.80;99.90
17954;DHT22;9102;53.548;9.926;2023-04-01T01:58:29;9.80;99.90
17954;DHT22;9102;53.548;9.926;2023-04-01T02:00:59;9.80;99.90
17954;DHT22;9102;53.548;9.926;2023-04-01T02:03:28;9.80;99.90
17954;DHT22;9102;53.548;9.926;2023-04-01T02:05:58;9.80;99.90
17954;DHT22;9102;53.548;9.926;2023-04-01T02:08:30;9.80;99.90
17954;DHT22;9102;53.548;9.926;2023-04-01T02:11:01;9.90;99.90
17954;DHT22;9102;53.548;9.926;2023-04-01T02:13:32;9.80;99.90
17954;DHT22;9102;53.548;9.926;2023-04-01T02:16:06;9.80;99.90
17954;DHT22;9102;53.548;9.926;2023-04-01T02:18:36;9.80;99.90
17954;DHT22;9102;53.548;9.926;2023-04-01T02:21:05;9.80;99.90
17954;DHT22;9102;53.548;9.926;2023-04-01T02:23:35;9.70;99.90
17954;DHT22;9102;53.548;9.926;2023-04-01T02:26:03;9.70;99.90
17954;DHT22;9102;53.548;9.926;2023-04-01T02:28:32;9.70;99.90
17954;DHT22;9102;53.548;9.926;2023-04-01T02:31:00;9.70;99.90
17954;DHT22;9102;53.548;9.926;2023-04-01T02:33:28;9.70;99.90
17954;DHT22;9102;53.548;9.926;2023-04-01T02:35:57;9.70;99.90
17954;DHT22;9102;53.548;9.926;2023-04-01T02:38:24;9.70;99.90
17954;DHT22;9102;53.548;9.926;2023-04-01T02:40:59;9.80;99.90
17954;DHT22;9102;53.548;9.926;2023-04-01T02:43:26;9.80;99.90
17954;DHT22;9102;53.548;9.926;2023-04-01T02:45:53;9.80;99.90
17954;DHT22;9102;53.548;9.926;2023-04-01T02:48:20;9.80;99.90
17954;DHT22;9102;53.548;9.926;2023-04-01T02:50:47;9.80;99.90
17954;DHT22;9102;53.548;9.926;2023-04-01T02:53:13;9.80;99.90
17954;DHT22;9102;53.548;9.926;2023-04-01T02:55:40;9.70;99.90
17954;DHT22;9102;53.548;9.926;2023-04-01T02:58:08;9.70;99.90
17954;DHT22;9102;53.548;9.926;2023-04-01T03:00:35;9.70;99.90
17954;DHT22;9102;53.548;9.926;2023-04-01T03:03:02;9.80;99.90
17954;DHT22;9102;53.548;9.926;2023-04-01T03:05:29;9.80;99.90
17954;DHT22;9102;53.548;9.926;2023-04-01T03:07:56;9.80;99.90
17954;DHT22;9102;53.548;9.926;2023-04-01T03:10:23;9.80;99.90
17954;DHT22;9102;53.548;9.926;2023-04-01T03:12:49;9.80;99.90
17954;DHT22;9102;53.548;9.926;2023-04-01T03:15:18;9.80;99.90
17954;DHT22;9102;53.548;9.926;2023-04-01T03:17:45;9.80;99.90
17954;DHT22;9102;53.548;9.926;2023-04-01T03:20:13;9.80;99.90
17954;DHT22;9102;53.548;9.926;2023-04-01T03:22:40;9.80;99.90
17954;DHT22;9102;53.548;9.926;2023-04-01T03:25:08;9.80;99.90
17954;DHT22;9102;53.548;9.926;2023-04-01T03:27:35;9.80;99.90
17954;DHT22;9102;53.548;9.926;2023-04-01T03:30:02;9.80;99.90
17954;DHT22;9102;53.548;9.926;2023-04-01T03:32:30;9.80;99.90
17954;DHT22;9102;53.548;9.926;2023-04-01T03:34:57;9.80;99.90
17954;DHT22;9102;53.548;9.926;2023-04-01T03:37:24;9.80;99.90
17954;DHT22;9102;53.548;9.926;2023-04-01T03:39:51;9.80;99.90
17954;DHT22;9102;53.548;9.926;2023-04-01T03:42:18;9.80;99.90
17954;DHT22;9102;53.548;9.926;2023-04-01T03:44:45;9.90;99.90
17954;DHT22;9102;53.548;9.926;2023-04-01T03:47:12;9.90;99.90
17954;DHT22;9102;53.548;9.926;2023-04-01T03:49:40;9.90;99.90
17954;DHT22;9102;53.548;9.926;2023-04-01T03:52:09;9.80;99.90
17954;DHT22;9102;53.548;9.926;2023-04-01T03:54:37;9.70;99.90
17954;DHT22;9102;53.548;9.926;2023-04-01T03:57:04;9.80;99.90
17954;DHT22;9102;53.548;9.926;2023-04-01T03:59:31;9.80;99.90
17954;DHT22;9102;53.548;9.926;2023-04-01T04:01:58;9.80;99.90
17954;DHT22;9102;53.548;9.926;2023-04-01T04:04:25;9.80;99.90
17954;DHT22;9102;53.548;9.926;2023-04-01T04:06:54;9.80;99.90
17954;DHT22;9102;53.548;9.926;2023-04-01T04:09:20;9.80;99.90
17954;DHT22;9102;53.548;9.926;2023-04-01T04:11:47;9.80;99.90
17954;DHT22;9102;53.548;9.926;2023-04-01T04:14:14;9.80;99.90
17954;DHT22;9102;53.548;9.926;2023-04-01T04:16:41;9.80;99.90
17954;DHT22;9102;53.548;9.926;2023-04-01T04:19:08;9.80;99.90
17954;DHT22;9102;53.548;9.926;2023-04-01T04:21:35;9.80;99.90
17954;DHT22;9102;53.548;9.926;2023-04-01T04:24:03;9.80;99.90
17954;DHT22;9102;53.548;9.926;2023-04-01T04:26:30;9.80;99.90
17954;DHT22;9102;53.548;9.926;2023-04-01T04:28:57;9.80;99.90
17954;DHT22;9102;53.548;9.926;2023-04-01T04:31:25;9.80;99.90
17954;DHT22;9102;53.548;9.926;2023-04-01T04:33:52;9.70;99.90
17954;DHT22;9102;53.548;9.926;2023-04-01T04:36:20;9.80;99.90
17954;DHT22;9102;53.548;9.926;2023-04-01T04:38:47;9.80;99.90
17954;DHT22;9102;53.548;9.926;2023-04-01T04:41:17;9.70;99.90
17954;DHT22;9102;53.548;9.926;2023-04-01T04:43:49;9.80;99.90
17954;DHT22;9102;53.548;9.926;2023-04-01T04:46:16;9.80;99.90
17954;DHT22;9102;53.548;9.926;2023-04-01T04:48:44;9.80;99.90
17954;DHT22;9102;53.548;9.926;2023-04-01T04:51:13;9.80;99.90
17954;DHT22;9102;53.548;9.926;2023-04-01T04:53:41;9.80;99.90
17954;DHT22;9102;53.548;9.926;2023-04-01T04:56:07;9.70;99.90
17954;DHT22;9102;53.548;9.926;2023-04-01T04:58:36;9.70;99.90
17954;DHT22;9102;53.548;9.926;2023-04-01T05:01:06;9.70;99.90
17954;DHT22;9102;53.548;9.926;2023-04-01T05:03:33;9.70;99.90
17954;DHT22;9102;53.548;9.926;2023-04-01T05:06:00;9.70;99.90
17954;DHT22;9102;53.548;9.926;2023-04-01T05:08:27;9.70;99.90
17954;DHT22;9102;53.548;9.926;2023-04-01T05:10:53;9.80;99.90
17954;DHT22;9102;53.548;9.926;2023-04-01T05:13:20;9.80;99.90
17954;DHT22;9102;53.548;9.926;2023-04-01T05:15:49;9.80;99.90
17954;DHT22;9102;53.548;9.926;2023-04-01T05:18:15;9.80;99.90
17954;DHT22;9102;53.548;9.926;2023-04-01T05:20:46;9.80;99.90
17954;DHT22;9102;53.548;9.926;2023-04-01T05:23:14;9.80;99.90
17954;DHT22;9102;53.548;9.926;2023-04-01T05:25:41;9.80;99.90
17954;DHT22;9102;53.548;9.926;2023-04-01T05:28:07;9.80;99.90
17954;DHT22;9102;53.548;9.926;2023-04-01T05:30:34;9.80;99.90
17954;DHT22;9102;53.548;9.926;2023-04-01T05:33:02;9.80;99.90
17954;DHT22;9102;53.548;9.926;2023-04-01T05:35:29;9.80;99.90
17954;DHT22;9102;53.548;9.926;2023-04-01T05:37:56;9.80;99.90
17954;DHT22;9102;53.548;9.926;2023-04-01T05:40:23;9.80;99.90
17954;DHT22;9102;53.548;9.926;2023-04-01T05:42:50;9.80;99.90
17954;DHT22;9102;53.548;9.926;2023-04-01T05:45:17;9.80;99.90
17954;DHT22;9102;53.548;9.926;2023-04-01T05:47:43;9.90;99.90
17954;DHT22;9102;53.548;9.926;2023-04-01T05:50:12;9.80;99.90
17954;DHT22;9102;53.548;9.926;2023-04-01T05:52:39;9.40;99.90
17954;DHT22;9102;53.548;9.926;2023-04-01T05:55:06;9.20;99.90
17954;DHT22;9102;53.548;9.926;2023-04-01T05:57:33;9.00;99.90
17954;DHT22;9102;53.548;9.926;2023-04-01T06:00:00;8.90;99.90
17954;DHT22;9102;53.548;9.926;2023-04-01T06:02:26;8.80;99.90
17954;DHT22;9102;53.548;9.926;2023-04-01T06:05:02;8.80;99.90
17954;DHT22;9102;53.548;9.926;2023-04-01T06:07:31;8.70;99.90
17954;DHT22;9102;53.548;9.926;2023-04-01T06:09:58;8.70;99.90
17954;DHT22;9102;53.548;9.926;2023-04-01T06:12:36;8.60;99.90
17954;DHT22;9102;53.548;9.926;2023-04-01T06:15:17;8.60;99.90
17954;DHT22;9102;53.548;9.926;2023-04-01T06:17:56;8.50;99.90
17954;DHT22;9102;53.548;9.926;2023-04-01T06:20:34;8.50;99.90
17954;DHT22;9102;53.548;9.926;2023-04-01T06:23:21;8.40;99.90
17954;DHT22;9102;53.548;9.926;2023-04-01T06:26:03;8.40;99.90
17954;DHT22;9102;53.548;9.926;2023-04-01T06:29:01;8.30;99.90
17954;DHT22;9102;53.548;9.926;2023-04-01T06:34:41;8.10;99.90
17954;DHT22;9102;53.548;9.926;2023-04-01T06:37:22;8.10;99.90
17954;DHT22;9102;53.548;9.926;2023-04-01T06:43:01;8.10;99.90
17954;DHT22;9102;53.548;9.926;2023-04-01T06:45:38;8.10;99.90
17954;DHT22;9102;53.548;9.926;2023-04-01T06:51:11;7.90;99.90
17954;DHT22;9102;53.548;9.926;2023-04-01T06:53:46;8.00;99.90
17954;DHT22;9102;53.548;9.926;2023-04-01T06:56:20;7.90;99.90
17954;DHT22;9102;53.548;9.926;2023-04-01T06:58:51;7.80;99.90
17954;DHT22;9102;53.548;9.926;2023-04-01T07:01:23;7.80;99.90
17954;DHT22;9102;53.548;9.926;2023-04-01T07:03:55;7.80;99.90
17954;DHT22;9102;53.548;9.926;2023-04-01T07:06:29;7.70;99.90
17954;DHT22;9102;53.548;9.926;2023-04-01T07:08:59;7.70;99.90
17954;DHT22;9102;53.548;9.926;2023-04-01T07:11:32;7.70;99.90
17954;DHT22;9102;53.548;9.926;2023-04-01T07:14:02;7.80;99.90
17954;DHT22;9102;53.548;9.926;2023-04-01T07:16:32;7.70;99.90
17954;DHT22;9102;53.548;9.926;2023-04-01T07:19:02;7.80;99.90
17954;DHT22;9102;53.548;9.926;2023-04-01T07:21:34;7.70;99.90
17954;DHT22;9102;53.548;9.926;2023-04-01T07:24:05;7.70;99.90
17954;DHT22;9102;53.548;9.926;2023-04-01T07:26:34;7.60;99.90
17954;DHT22;9102;53.548;9.926;2023-04-01T07:29:00;7.60;99.90
17954;DHT22;9102;53.548;9.926;2023-04-01T07:31:40;7.50;99.90
17954;DHT22;9102;53.548;9.926;2023-04-01T07:34:15;7.50;99.90
17954;DHT22;9102;53.548;9.926;2023-04-01T07:36:48;7.50;99.90
17954;DHT22;9102;53.548;9.926;2023-04-01T07:39:26;7.40;99.90
17954;DHT22;9102;53.548;9.926;2023-04-01T07:42:04;7.40;99.90
17954;DHT22;9102;53.548;9.926;2023-04-01T07:44:38;7.50;99.90
17954;DHT22;9102;53.548;9.926;2023-04-01T07:47:15;7.50;99.90
17954;DHT22;9102;53.548;9.926;2023-04-01T07:49:53;7.40;99.90
17954;DHT22;9102;53.548;9.926;2023-04-01T07:52:26;7.40;99.90
17954;DHT22;9102;53.548;9.926;2023-04-01T07:54:59;7.30;99.90
17954;DHT22;9102;53.548;9.926;2023-04-01T07:57:35;7.40;99.90
17954;DHT22;9102;53.548;9.926;2023-04-01T08:00:09;7.30;99.90
17954;DHT22;9102;53.548;9.926;2023-04-01T08:02:49;7.30;99.90
17954;DHT22;9102;53.548;9.926;2023-04-01T08:05:23;7.30;99.90
17954;DHT22;9102;53.548;9.926;2023-04-01T08:07:59;7.20;99.90
17954;DHT22;9102;53.548;9.926;2023-04-01T08:10:34;7.20;99.90
17954;DHT22;9102;53.548;9.926;2023-04-01T08:13:08;7.30;99.90
17954;DHT22;9102;53.548;9.926;2023-04-01T08:15:41;7.30;99.90
17954;DHT22;9102;53.548;9.926;2023-04-01T08:18:20;7.20;99.90
17954;DHT22;9102;53.548;9.926;2023-04-01T08:20:52;7.20;99.90
17954;DHT22;9102;53.548;9.926;2023-04-01T08:23:22;7.20;99.90
17954;DHT22;9102;53.548;9.926;2023-04-01T08:25:53;7.10;99.90
17954;DHT22;9102;53.548;9.926;2023-04-01T08:28:29;7.10;99.90
17954;DHT22;9102;53.548;9.926;2023-04-01T08:31:00;7.10;99.90
17954;DHT22;9102;53.548;9.926;2023-04-01T08:33:30;7.00;99.90
17954;DHT22;9102;53.548;9.926;2023-04-01T08:36:02;7.10;99.90
17954;DHT22;9102;53.548;9.926;2023-04-01T08:38:32;7.20;99.90
17954;DHT22;9102;53.548;9.926;2023-04-01T08:41:01;7.10;99.90
17954;DHT22;9102;53.548;9.926;2023-04-01T08:43:50;7.10;99.90
17954;DHT22;9102;53.548;9.926;2023-04-01T08:46:47;7.00;99.90
17954;DHT22;9102;53.548;9.926;2023-04-01T08:49:30;7.10;99.90
17954;DHT22;9102;53.548;9.926;2023-04-01T08:52:12;7.10;99.90
17954;DHT22;9102;53.548;9.926;2023-04-01T08:55:04;7.10;99.90
17954;DHT22;9102;53.548;9.926;2023-04-01T08:57:49;7.10;99.90
17954;DHT22;9102;53.548;9.926;2023-04-01T09:00:29;7.10;99.90
17954;DHT22;9102;53.548;9.926;2023-04-01T09:03:19;7.20;99.90
17954;DHT22;9102;53.548;9.926;2023-04-01T09:09:00;7.30;99.90
17954;DHT22;9102;53.548;9.926;2023-04-01T09:11:43;7.30;99.90
17954;DHT22;9102;53.548;9.926;2023-04-01T09:14:36;7.20;99.90
17954;DHT22;9102;53.548;9.926;2023-04-01T09:17:34;7.20;99.90
17954;DHT22;9102;53.548;9.926;2023-04-01T09:20:25;7.20;99.90
17954;DHT22;9102;53.548;9.926;2023-04-01T09:23:09;7.20;99.90
17954;DHT22;9102;53.548;9.926;2023-04-01T09:28:41;7.20;99.90
17954;DHT22;9102;53.548;9.926;2023-04-01T09:31:20;7.20;99.90
17954;DHT22;9102;53.548;9.926;2023-04-01T09:34:18;7.30;99.90
17954;DHT22;9102;53.548;9.926;2023-04-01T09:36:59;7.30;99.90
17954;DHT22;9102;53.548;9.926;2023-04-01T09:39:37;7.30;99.90
17954;DHT22;9102;53.548;9.926;2023-04-01T09:42:34;7.20;99.90
17954;DHT22;9102;53.548;9.926;2023-04-01T09:45:17;7.30;99.90
17954;DHT22;9102;53.548;9.926;2023-04-01T09:48:02;7.10;99.90
17954;DHT22;9102;53.548;9.926;2023-04-01T09:50:38;7.30;99.90
17954;DHT22;9102;53.548;9.926;2023-04-01T09:53:20;7.30;99.90
17954;DHT22;9102;53.548;9.926;2023-04-01T09:56:22;7.30;99.90
17954;DHT22;9102;53.548;9.926;2023-04-01T10:08:24;7.40;99.90
17954;DHT22;9102;53.548;9.926;2023-04-01T10:14:38;7.40;99.90
17954;DHT22;9102;53.548;9.926;2023-04-01T10:17:51;7.50;99.90
17954;DHT22;9102;53.548;9.926;2023-04-01T10:24:14;7.80;99.90
17954;DHT22;9102;53.548;9.926;2023-04-01T10:27:16;7.80;99.90
17954;DHT22;9102;53.548;9.926;2023-04-01T10:30:04;7.80;99.90
17954;DHT22;9102;53.548;9.926;2023-04-01T10:33:06;7.70;99.90
17954;DHT22;9102;53.548;9.926;2023-04-01T10:36:09;7.80;99.90
17954;DHT22;9102;53.548;9.926;2023-04-01T10:42:03;7.80;99.90
17954;DHT22;9102;53.548;9.926;2023-04-01T10:45:10;7.70;99.90
17954;DHT22;9102;53.548;9.926;2023-04-01T10:48:13;8.00;99.90
17954;DHT22;9102;53.548;9.926;2023-04-01T10:51:11;7.90;99.90
17954;DHT22;9102;53.548;9.926;2023-04-01T10:53:51;8.10;99.90
17954;DHT22;9102;53.548;9.926;2023-04-01T10:56:40;8.10;99.90
17954;DHT22;9102;53.548;9.926;2023-04-01T11:02:45;8.00;99.90
17954;DHT22;9102;53.548;9.926;2023-04-01T11:24:07;7.70;99.90
17954;DHT22;9102;53.548;9.926;2023-04-01T11:26:51;7.70;99.90
17954;DHT22;9102;53.548;9.926;2023-04-01T11:29:36;7.70;99.90
17954;DHT22;9102;53.548;9.926;2023-04-01T11:32:17;7.70;99.90
17954;DHT22;9102;53.548;9.926;2023-04-01T11:35:01;7.70;99.90
17954;DHT22;9102;53.548;9.926;2023-04-01T11:37:38;7.80;99.90
17954;DHT22;9102;53.548;9.926;2023-04-01T11:40:17;7.70;99.90
17954;DHT22;9102;53.548;9.926;2023-04-01T11:42:54;7.80;99.90
17954;DHT22;9102;53.548;9.926;2023-04-01T11:45:34;7.70;99.90
17954;DHT22;9102;53.548;9.926;2023-04-01T11:48:24;7.80;99.90
17954;DHT22;9102;53.548;9.926;2023-04-01T11:51:07;7.80;99.90
17954;DHT22;9102;53.548;9.926;2023-04-01T11:53:52;7.80;99.90
17954;DHT22;9102;53.548;9.926;2023-04-01T11:56:36;7.80;99.90
17954;DHT22;9102;53.548;9.926;2023-04-01T11:59:25;7.70;99.90
17954;DHT22;9102;53.548;9.926;2023-04-01T12:02:00;7.70;99.90
17954;DHT22;9102;53.548;9.926;2023-04-01T12:04:55;7.70;99.90
17954;DHT22;9102;53.548;9.926;2023-04-01T12:10:19;7.40;99.90
17954;DHT22;9102;53.548;9.926;2023-04-01T12:12:53;7.30;99.90
17954;DHT22;9102;53.548;9.926;2023-04-01T12:15:29;7.40;99.90
17954;DHT22;9102;53.548;9.926;2023-04-01T12:18:05;7.40;99.90
17954;DHT22;9102;53.548;9.926;2023-04-01T12:20:44;7.50;99.90
17954;DHT22;9102;53.548;9.926;2023-04-01T12:23:31;7.40;99.90
17954;DHT22;9102;53.548;9.926;2023-04-01T12:26:19;7.30;99.90
17954;DHT22;9102;53.548;9.926;2023-04-01T12:29:02;7.20;99.90
17954;DHT22;9102;53.548;9.926;2023-04-01T12:31:38;7.10;99.90
17954;DHT22;9102;53.548;9.926;2023-04-01T12:34:48;7.20;99.90
17954;DHT22;9102;53.548;9.926;2023-04-01T12:37:28;7.10;99.90
17954;DHT22;9102;53.548;9.926;2023-04-01T12:40:20;7.20;99.90
17954;DHT22;9102;53.548;9.926;2023-04-01T12:43:14;7.30;99.90
17954;DHT22;9102;53.548;9.926;2023-04-01T12:45:50;7.30;99.90
17954;DHT22;9102;53.548;9.926;2023-04-01T12:48:50;7.20;99.90
17954;DHT22;9102;53.548;9.926;2023-04-01T12:51:51;7.20;99.90
17954;DHT22;9102;53.548;9.926;2023-04-01T12:54:48;7.20;99.90
17954;DHT22;9102;53.548;9.926;2023-04-01T13:00:29;7.30;99.90
17954;DHT22;9102;53.548;9.926;2023-04-01T13:03:11;7.40;99.90
17954;DHT22;9102;53.548;9.926;2023-04-01T13:06:03;7.40;99.90
17954;DHT22;9102;53.548;9.926;2023-04-01T13:08:38;7.40;99.90
17954;DHT22;9102;53.548;9.926;2023-04-01T13:11:14;7.40;99.90
17954;DHT22;9102;53.548;9.926;2023-04-01T13:16:59;7.30;99.90
17954;DHT22;9102;53.548;9.926;2023-04-01T13:19:33;7.20;99.90
17954;DHT22;9102;53.548;9.926;2023-04-01T13:22:07;7.20;99.90
17954;DHT22;9102;53.548;9.926;2023-04-01T13:24:43;7.10;99.90
17954;DHT22;9102;53.548;9.926;2023-04-01T13:27:18;7.20;99.90
17954;DHT22;9102;53.548;9.926;2023-04-01T13:29:54;7.10;99.90
17954;DHT22;9102;53.548;9.926;2023-04-01T13:32:28;7.20;99.90
17954;DHT22;9102;53.548;9.926;2023-04-01T13:35:08;7.00;99.90
17954;DHT22;9102;53.548;9.926;2023-04-01T13:37:50;6.80;99.90
17954;DHT22;9102;53.548;9.926;2023-04-01T13:40:33;6.90;99.90
17954;DHT22;9102;53.548;9.926;2023-04-01T13:43:07;7.00;99.90
17954;DHT22;9102;53.548;9.926;2023-04-01T13:45:47;7.00;99.90
17954;DHT22;9102;53.548;9.926;2023-04-01T13:48:44;7.00;99.90
17954;DHT22;9102;53.548;9.926;2023-04-01T13:51:40;7.00;99.90
17954;DHT22;9102;53.548;9.926;2023-04-01T13:54:36;6.90;99.90
17954;DHT22;9102;53.548;9.926;2023-04-01T13:57:23;6.90;99.90
17954;DHT22;9102;53.548;9.926;2023-04-01T14:00:07;6.90;99.90
17954;DHT22;9102;53.548;9.926;2023-04-01T14:02:47;6.90;99.90
17954;DHT22;9102;53.548;9.926;2023-04-01T14:05:29;6.90;99.90
17954;DHT22;9102;53.548;9.926;2023-04-01T14:08:06;6.90;99.90
17954;DHT22;9102;53.548;9.926;2023-04-01T14:10:42;7.10;99.90
17954;DHT22;9102;53.548;9.926;2023-04-01T14:13:17;7.00;99.90
17954;DHT22;9102;53.548;9.926;2023-04-01T14:18:53;6.90;99.90
17954;DHT22;9102;53.548;9.926;2023-04-01T14:21:34;7.00;99.90
17954;DHT22;9102;53.548;9.926;2023-04-01T14:24:21;6.90;99.90
17954;DHT22;9102;53.548;9.926;2023-04-01T14:27:28;6.90;99.90
17954;DHT22;9102;53.548;9.926;2023-04-01T14:30:08;6.90;99.90
17954;DHT22;9102;53.548;9.926;2023-04-01T14:32:45;6.80;99.90
17954;DHT22;9102;53.548;9.926;2023-04-01T14:35:28;6.90;99.90
17954;DHT22;9102;53.548;9.926;2023-04-01T14:40:55;7.00;99.90
17954;DHT22;9102;53.548;9.926;2023-04-01T14:43:53;7.00;99.90
17954;DHT22;9102;53.548;9.926;2023-04-01T14:49:34;7.10;99.90
17954;DHT22;9102;53.548;9.926;2023-04-01T14:52:10;7.10;99.90
17954;DHT22;9102;53.548;9.926;2023-04-01T14:54:40;7.00;99.90
17954;DHT22;9102;53.548;9.926;2023-04-01T14:57:11;7.00;99.90
17954;DHT22;9102;53.548;9.926;2023-04-01T14:59:40;6.80;99.90
17954;DHT22;9102;53.548;9.926;2023-04-01T15:02:18;6.80;99.90
17954;DHT22;9102;53.548;9.926;2023-04-01T15:04:59;6.70;99.90
17954;DHT22;9102;53.548;9.926;2023-04-01T15:07:55;6.60;99.90
17954;DHT22;9102;53.548;9.926;2023-04-01T15:10:53;6.60;99.90
17954;DHT22;9102;53.548;9.926;2023-04-01T15:13:42;6.50;99.90
17954;DHT22;9102;53.548;9.926;2023-04-01T15:16:21;6.40;99.90
17954;DHT22;9102;53.548;9.926;2023-04-01T15:18:56;6.20;99.90
17954;DHT22;9102;53.548;9.926;2023-04-01T15:21:40;6.00;99.90
17954;DHT22;9102;53.548;9.926;2023-04-01T15:24:16;6.10;99.90
17954;DHT22;9102;53.548;9.926;2023-04-01T15:27:06;5.90;99.90
17954;DHT22;9102;53.548;9.926;2023-04-01T15:29:47;5.70;99.90
17954;DHT22;9102;53.548;9.926;2023-04-01T15:32:21;6.00;99.90
17954;DHT22;9102;53.548;9.926;2023-04-01T15:34:54;5.90;99.90
17954;DHT22;9102;53.548;9.926;2023-04-01T15:37:34;5.80;99.90
17954;DHT22;9102;53.548;9.926;2023-04-01T15:40:14;5.80;99.90
17954;DHT22;9102;53.548;9.926;2023-04-01T15:42:54;5.80;99.90
17954;DHT22;9102;53.548;9.926;2023-04-01T15:45:32;5.80;99.90
17954;DHT22;9102;53.548;9.926;2023-04-01T15:48:13;5.80;99.90
17954;DHT22;9102;53.548;9.926;2023-04-01T15:51:01;5.80;99.90
17954;DHT22;9102;53.548;9.926;2023-04-01T15:56:51;5.70;99.90
17954;DHT22;9102;53.548;9.926;2023-04-01T15:59:41;5.70;99.90
17954;DHT22;9102;53.548;9.926;2023-04-01T16:02:19;5.60;99.90
17954;DHT22;9102;53.548;9.926;2023-04-01T16:04:52;5.60;99.90
17954;DHT22;9102;53.548;9.926;2023-04-01T16:07:43;5.60;99.90
17954;DHT22;9102;53.548;9.926;2023-04-01T16:10:28;5.60;99.90
17954;DHT22;9102;53.548;9.926;2023-04-01T16:13:11;5.50;99.90
17954;DHT22;9102;53.548;9.926;2023-04-01T16:15:47;5.40;99.90
17954;DHT22;9102;53.548;9.926;2023-04-01T16:18:40;5.40;99.90
17954;DHT22;9102;53.548;9.926;2023-04-01T16:21:20;5.40;99.90
17954;DHT22;9102;53.548;9.926;2023-04-01T16:23:50;5.30;99.90
17954;DHT22;9102;53.548;9.926;2023-04-01T16:26:24;5.40;99.90
17954;DHT22;9102;53.548;9.926;2023-04-01T16:28:59;5.50;99.90
17954;DHT22;9102;53.548;9.926;2023-04-01T16:31:35;5.40;99.90
17954;DHT22;9102;53.548;9.926;2023-04-01T16:34:08;5.40;99.90
17954;DHT22;9102;53.548;9.926;2023-04-01T16:36:43;5.40;99.90
17954;DHT22;9102;53.548;9.926;2023-04-01T16:42:31;5.30;99.90
17954;DHT22;9102;53.548;9.926;2023-04-01T16:45:16;5.30;99.90
17954;DHT22;9102;53.548;9.926;2023-04-01T16:47:48;5.20;99.90
17954;DHT22;9102;53.548;9.926;2023-04-01T16:50:20;5.10;99.90
17954;DHT22;9102;53.548;9.926;2023-04-01T16:52:57;5.10;99.90
17954;DHT22;9102;53.548;9.926;2023-04-01T16:55:35;5.10;99.90
17954;DHT22;9102;53.548;9.926;2023-04-01T16:58:02;5.10;99.90
17954;DHT22;9102;53.548;9.926;2023-04-01T17:00:37;5.10;99.90
17954;DHT22;9102;53.548;9.926;2023-04-01T17:03:12;5.10;99.90
17954;DHT22;9102;53.548;9.926;2023-04-01T17:05:54;5.10;99.90
17954;DHT22;9102;53.548;9.926;2023-04-01T17:08:37;5.10;99.90
17954;DHT22;9102;53.548;9.926;2023-04-01T17:11:11;5.10;99.90
17954;DHT22;9102;53.548;9.926;2023-04-01T17:13:46;5.10;99.90
17954;DHT22;9102;53.548;9.926;2023-04-01T17:16:48;5.10;99.90
17954;DHT22;9102;53.548;9.926;2023-04-01T17:19:31;5.10;99.90
17954;DHT22;9102;53.548;9.926;2023-04-01T17:22:07;5.10;99.90
17954;DHT22;9102;53.548;9.926;2023-04-01T17:24:48;5.00;99.90
17954;DHT22;9102;53.548;9.926;2023-04-01T17:27:26;4.90;99.90
17954;DHT22;9102;53.548;9.926;2023-04-01T17:30:11;4.80;99.90
17954;DHT22;9102;53.548;9.926;2023-04-01T17:32:51;4.80;99.90
17954;DHT22;9102;53.548;9.926;2023-04-01T17:35:26;4.90;99.90
17954;DHT22;9102;53.548;9.926;2023-04-01T17:38:09;4.90;99.90
17954;DHT22;9102;53.548;9.926;2023-04-01T17:40:48;5.00;99.90
17954;DHT22;9102;53.548;9.926;2023-04-01T17:43:24;5.00;99.90
17954;DHT22;9102;53.548;9.926;2023-04-01T17:45:54;5.20;99.90
17954;DHT22;9102;53.548;9.926;2023-04-01T17:48:35;5.20;99.90
17954;DHT22;9102;53.548;9.926;2023-04-01T17:51:17;5.30;99.90
17954;DHT22;9102;53.548;9.926;2023-04-01T17:53:54;5.30;99.90
17954;DHT22;9102;53.548;9.926;2023-04-01T17:56:33;5.40;99.90
17954;DHT22;9102;53.548;9.926;2023-04-01T17:59:10;5.40;99.90
17954;DHT22;9102;53.548;9.926;2023-04-01T18:01:48;5.40;99.90
17954;DHT22;9102;53.548;9.926;2023-04-01T18:04:41;5.30;99.90
17954;DHT22;9102;53.548;9.926;2023-04-01T18:07:35;5.30;99.90
17954;DHT22;9102;53.548;9.926;2023-04-01T18:10:20;5.20;99.90
17954;DHT22;9102;53.548;9.926;2023-04-01T18:16:17;5.30;99.90
17954;DHT22;9102;53.548;9.926;2023-04-01T18:18:56;5.30;99.90
17954;DHT22;9102;53.548;9.926;2023-04-01T18:21:33;5.40;99.90
17954;DHT22;9102;53.548;9.926;2023-04-01T18:24:21;5.40;99.90
17954;DHT22;9102;53.548;9.926;2023-04-01T18:27:00;5.40;99.90
17954;DHT22;9102;53.548;9.926;2023-04-01T18:29:35;5.40;99.90